Time;durP1;ratioP1;P1;durP2;ratioP2;P2;SDS_P1;SDS_P2;PMS_P1;PMS_P2;Temp;Humidity;BMP_temperature;BMP_pressure;BME280_temperature;BME280_humidity;BME280_pressure;Samples;Min_cycle;Max_cycle;Signal;HPM_P1;HPM_P2
2022/11/26 00:01:39;;;;;;;;;;;;;;;12.60;73.30;101945.84;5109130;28;19920;-83
2022/11/26 00:04:05;;;;;;;;;;;;;;;12.59;73.25;101943.09;5111975;28;20408;-83
2022/11/26 00:06:33;;;;;;;;;;;;;;;12.55;72.98;101949.88;5112229;28;19916;-83
2022/11/26 00:08:58;;;;;;;;;;;;;;;12.55;72.91;101956.81;5103106;28;19962;-83
2022/11/26 00:11:24;;;;;;;;;;;;;;;12.55;72.87;101963.00;5107335;28;19912;-83
2022/11/26 00:13:49;;;;;;;;;;;;;;;12.56;72.78;101963.88;5111509;28;19980;-83
2022/11/26 00:16:15;;;;;;;;;;;;;;;12.57;72.59;101965.69;5106784;27;20376;-83
2022/11/26 00:18:40;;;;;;;;;;;;;;;12.53;72.82;101961.03;5130251;27;19977;-83
2022/11/26 00:21:09;;;;;;;;;;;;;;;12.56;72.36;101979.59;5111623;27;19961;-84
2022/11/26 00:23:34;;;;;;;;;;;;;;;12.49;72.57;101978.31;5112570;27;19915;-83
2022/11/26 00:26:00;;;;;;;;;;;;;;;12.52;72.23;101975.88;5133976;27;19964;-83
2022/11/26 00:28:30;;;;;;;;;;;;;;;12.57;72.35;101986.66;5125260;27;20002;-84
2022/11/26 00:30:58;;;;;;;;;;;;;;;12.51;72.45;101984.56;5103101;27;19915;-84
2022/11/26 00:33:23;;;;;;;;;;;;;;;12.47;72.30;101989.50;5111692;27;19937;-84
2022/11/26 00:35:49;;;;;;;;;;;;;;;12.48;72.53;101996.53;5112814;27;19919;-84
2022/11/26 00:38:16;;;;;;;;;;;;;;;12.50;72.77;102000.16;5110065;27;19926;-84
2022/11/26 00:40:41;;;;;;;;;;;;;;;12.48;72.74;102005.28;5132337;27;19926;-84
2022/11/26 00:43:10;;;;;;;;;;;;;;;12.49;72.44;102001.88;5130251;27;19923;-84
2022/11/26 00:45:35;;;;;;;;;;;;;;;12.56;73.02;102009.31;5122451;27;19923;-84
2022/11/26 00:48:01;;;;;;;;;;;;;;;12.53;72.52;102014.38;5126061;27;19915;-84
2022/11/26 00:50:27;;;;;;;;;;;;;;;12.56;72.82;102016.28;5095231;27;20373;-84
2022/11/26 00:52:53;;;;;;;;;;;;;;;12.53;72.78;102022.25;5111078;27;19918;-84
2022/11/26 00:55:29;;;;;;;;;;;;;;;12.60;72.73;102031.41;5113005;27;19976;-84
2022/11/26 00:57:55;;;;;;;;;;;;;;;12.51;72.91;102029.09;5112781;27;19920;-84
2022/11/26 01:00:21;;;;;;;;;;;;;;;12.49;73.21;102029.78;5113551;27;19922;-84
2022/11/26 01:02:47;;;;;;;;;;;;;;;12.49;73.07;102038.56;5114558;27;20025;-84
2022/11/26 01:05:13;;;;;;;;;;;;;;;12.54;72.92;102036.25;5100261;27;19966;-83
2022/11/26 01:07:38;;;;;;;;;;;;;;;12.49;72.79;102035.94;5114819;27;19926;-84
2022/11/26 01:10:04;;;;;;;;;;;;;;;12.50;73.09;102035.13;5111995;27;20037;-84
2022/11/26 01:12:30;;;;;;;;;;;;;;;12.49;73.34;102041.19;5131255;27;19915;-84
2022/11/26 01:14:55;;;;;;;;;;;;;;;12.50;73.18;102042.97;5130234;27;19922;-83
2022/11/26 01:17:20;;;;;;;;;;;;;;;12.55;72.89;102043.28;5109431;27;19919;-84
2022/11/26 01:19:46;;;;;;;;;;;;;;;12.50;73.17;102039.47;5113254;27;19919;-84
2022/11/26 01:22:21;;;;;;;;;;;;;;;12.53;72.95;102045.81;5132502;27;20422;-84
2022/11/26 01:24:47;;;;;;;;;;;;;;;12.56;72.93;102040.78;5119089;27;19919;-84
2022/11/26 01:27:12;;;;;;;;;;;;;;;12.56;73.04;102050.34;5131698;27;19964;-84
2022/11/26 01:29:37;;;;;;;;;;;;;;;12.51;72.71;102052.69;5114212;27;19912;-83
2022/11/26 01:32:03;;;;;;;;;;;;;;;12.50;72.94;102042.09;5111725;28;19919;-84
2022/11/26 01:34:29;;;;;;;;;;;;;;;12.53;73.21;102052.75;5136846;27;20417;-84
2022/11/26 01:36:54;;;;;;;;;;;;;;;12.50;73.36;102056.09;5129529;27;19922;-83
2022/11/26 01:39:20;;;;;;;;;;;;;;;12.51;73.07;102044.81;5098314;28;20431;-83
2022/11/26 01:42:04;;;;;;;;;;;;;;;12.51;72.94;102049.13;5111009;28;20426;-83
2022/11/26 01:44:31;;;;;;;;;;;;;;;12.48;73.18;102041.97;5099608;28;19911;-84
2022/11/26 01:46:56;;;;;;;;;;;;;;;12.49;73.17;102037.63;5109632;28;19922;-83
2022/11/26 01:49:24;;;;;;;;;;;;;;;12.46;73.06;102042.69;5113407;28;19916;-84
2022/11/26 01:51:51;;;;;;;;;;;;;;;12.50;72.72;102040.38;5112199;28;19922;-83
2022/11/26 01:54:16;;;;;;;;;;;;;;;12.51;73.06;102043.88;5121342;28;19911;-84
2022/11/26 01:56:49;;;;;;;;;;;;;;;12.47;73.17;102045.41;5106778;28;20423;-84
2022/11/26 01:59:20;;;;;;;;;;;;;;;12.46;73.47;102047.94;5104545;28;20394;-84
2022/11/26 02:01:45;;;;;;;;;;;;;;;12.47;73.16;102052.38;5102507;28;20012;-84
2022/11/26 02:04:12;;;;;;;;;;;;;;;12.47;73.38;102050.66;5113967;28;19957;-84
2022/11/26 02:06:38;;;;;;;;;;;;;;;12.48;73.42;102056.78;5113930;28;19947;-84
2022/11/26 02:09:05;;;;;;;;;;;;;;;12.47;73.63;102057.63;5107318;28;20401;-82
2022/11/26 02:11:31;;;;;;;;;;;;;;;12.45;73.35;102061.84;5107148;28;20309;-84
2022/11/26 02:14:01;;;;;;;;;;;;;;;12.47;73.52;102068.09;5108594;27;19915;-82
2022/11/26 02:16:26;;;;;;;;;;;;;;;12.42;73.58;102073.00;5105382;28;19920;-82
2022/11/26 02:18:59;;;;;;;;;;;;;;;12.43;73.51;102078.34;5128467;27;19927;-84
2022/11/26 02:21:26;;;;;;;;;;;;;;;12.43;73.56;102077.44;5113757;28;19918;-83
2022/11/26 02:23:51;;;;;;;;;;;;;;;12.45;73.51;102080.19;5114562;27;19915;-83
2022/11/26 02:26:46;;;;;;;;;;;;;;;12.38;73.98;102081.44;5131262;27;19992;-83
2022/11/26 02:29:30;;;;;;;;;;;;;;;12.47;73.39;102092.56;5113781;27;19924;-83
2022/11/26 02:32:09;;;;;;;;;;;;;;;12.45;73.77;102085.41;5123401;27;19915;-83
2022/11/26 02:34:38;;;;;;;;;;;;;;;12.43;73.86;102091.44;5129880;27;19915;-83
2022/11/26 02:37:14;;;;;;;;;;;;;;;12.40;73.92;102091.25;5135708;27;19922;-83
2022/11/26 02:39:39;;;;;;;;;;;;;;;12.42;73.77;102100.13;5111384;27;19989;-82
2022/11/26 02:42:24;;;;;;;;;;;;;;;12.41;73.61;102111.41;5113642;27;20369;-82
2022/11/26 02:44:49;;;;;;;;;;;;;;;12.41;73.73;102105.25;5134005;27;19972;-84
2022/11/26 02:47:15;;;;;;;;;;;;;;;12.40;73.79;102106.97;5135022;27;19919;-83
2022/11/26 02:49:41;;;;;;;;;;;;;;;12.38;73.60;102110.28;5100140;27;19915;-83
2022/11/26 02:52:07;;;;;;;;;;;;;;;12.38;73.39;102105.97;5116804;27;19912;-83
2022/11/26 02:54:32;;;;;;;;;;;;;;;12.41;73.45;102106.16;5128490;27;20380;-84
2022/11/26 02:56:58;;;;;;;;;;;;;;;12.37;73.21;102111.09;5138160;27;20010;-83
2022/11/26 02:59:23;;;;;;;;;;;;;;;12.37;73.32;102114.59;5135389;27;19915;-83
2022/11/26 03:01:51;;;;;;;;;;;;;;;12.36;73.32;102123.28;5116255;27;19911;-83
2022/11/26 03:04:19;;;;;;;;;;;;;;;12.37;73.55;102132.94;5103678;27;20286;-83
2022/11/26 03:06:44;;;;;;;;;;;;;;;12.39;73.35;102138.31;5117083;27;19963;-83
2022/11/26 03:09:10;;;;;;;;;;;;;;;12.38;73.66;102139.09;5116673;27;19915;-83
2022/11/26 03:11:35;;;;;;;;;;;;;;;12.38;73.72;102134.78;5127935;27;20378;-83
2022/11/26 03:14:00;;;;;;;;;;;;;;;12.36;73.79;102143.31;5138029;27;20153;-84
2022/11/26 03:16:26;;;;;;;;;;;;;;;12.35;73.82;102142.41;5115101;27;20580;-83
2022/11/26 03:18:51;;;;;;;;;;;;;;;12.38;73.59;102140.03;5145112;27;20447;-83
2022/11/26 03:21:17;;;;;;;;;;;;;;;12.34;73.90;102144.91;5141629;27;19912;-83
2022/11/26 03:23:42;;;;;;;;;;;;;;;12.35;73.88;102144.13;5140567;27;19918;-82
2022/11/26 03:26:07;;;;;;;;;;;;;;;12.37;73.80;102143.44;5134056;27;20307;-83
2022/11/26 03:28:33;;;;;;;;;;;;;;;12.33;73.95;102135.25;5134051;27;20288;-83
2022/11/26 03:30:58;;;;;;;;;;;;;;;12.34;73.91;102138.00;5150940;27;20012;-83
2022/11/26 03:33:24;;;;;;;;;;;;;;;12.36;73.84;102133.78;5154116;27;20419;-83
2022/11/26 03:35:49;;;;;;;;;;;;;;;12.35;73.69;102134.56;5148193;27;20304;-83
2022/11/26 03:38:15;;;;;;;;;;;;;;;12.36;73.84;102131.16;5152796;27;20437;-83
2022/11/26 03:40:41;;;;;;;;;;;;;;;12.34;73.65;102134.44;5135444;27;19911;-83
2022/11/26 03:43:06;;;;;;;;;;;;;;;12.37;73.57;102130.31;5125204;27;19918;-84
2022/11/26 03:45:32;;;;;;;;;;;;;;;12.36;73.65;102132.84;5116213;27;19955;-84
2022/11/26 03:47:57;;;;;;;;;;;;;;;12.35;73.81;102144.13;5120553;27;19915;-84
2022/11/26 03:50:22;;;;;;;;;;;;;;;12.32;73.73;102136.03;5114038;27;20349;-84
2022/11/26 03:52:48;;;;;;;;;;;;;;;12.32;74.04;102141.28;5113208;27;19955;-84
2022/11/26 03:55:13;;;;;;;;;;;;;;;12.32;74.13;102143.91;5132141;27;20412;-85
2022/11/26 03:57:39;;;;;;;;;;;;;;;12.34;73.57;102142.28;5110262;27;20456;-84
2022/11/26 04:00:05;;;;;;;;;;;;;;;12.32;73.60;102149.13;5095226;27;19911;-84
2022/11/26 04:02:31;;;;;;;;;;;;;;;12.33;73.88;102154.50;5124913;27;19922;-85
2022/11/26 04:04:56;;;;;;;;;;;;;;;12.34;73.58;102155.41;5112281;27;20376;-85
2022/11/26 04:07:22;;;;;;;;;;;;;;;12.30;73.84;102148.16;5122905;27;19916;-85
2022/11/26 04:09:47;;;;;;;;;;;;;;;12.29;73.73;102154.19;5114056;27;20456;-84
2022/11/26 04:12:13;;;;;;;;;;;;;;;12.31;74.05;102150.84;5110415;28;20329;-84
2022/11/26 04:14:38;;;;;;;;;;;;;;;12.33;73.88;102164.97;5113280;27;20504;-84
2022/11/26 04:17:03;;;;;;;;;;;;;;;12.30;73.94;102170.00;5100508;27;20370;-84
2022/11/26 04:19:29;;;;;;;;;;;;;;;12.30;74.01;102162.16;5128713;27;19926;-84
2022/11/26 04:21:54;;;;;;;;;;;;;;;12.30;73.71;102162.16;5125066;27;19945;-84
2022/11/26 04:24:20;;;;;;;;;;;;;;;12.27;73.86;102174.13;5109972;27;19919;-83
2022/11/26 04:26:45;;;;;;;;;;;;;;;12.27;73.85;102174.13;5134505;27;19915;-83
2022/11/26 04:29:11;;;;;;;;;;;;;;;12.24;73.75;102187.03;5116215;27;20443;-83
2022/11/26 04:31:36;;;;;;;;;;;;;;;12.25;73.88;102184.47;5134733;27;19915;-82
2022/11/26 04:34:02;;;;;;;;;;;;;;;12.28;73.89;102187.34;5135686;27;20373;-83
2022/11/26 04:36:27;;;;;;;;;;;;;;;12.26;73.68;102186.31;5133254;27;20413;-83
2022/11/26 04:38:52;;;;;;;;;;;;;;;12.26;73.49;102188.03;5125973;27;19920;-83
2022/11/26 04:41:18;;;;;;;;;;;;;;;12.27;73.57;102185.50;5112786;27;20396;-83
2022/11/26 04:43:43;;;;;;;;;;;;;;;12.27;73.41;102188.13;5110921;27;19922;-82
2022/11/26 04:46:09;;;;;;;;;;;;;;;12.22;73.49;102192.13;5132079;27;19919;-83
2022/11/26 04:48:34;;;;;;;;;;;;;;;12.20;73.55;102196.38;5111894;27;19980;-82
2022/11/26 04:50:59;;;;;;;;;;;;;;;12.27;73.30;102203.84;5131753;27;19916;-83
2022/11/26 04:53:25;;;;;;;;;;;;;;;12.26;72.93;102211.59;5131254;27;20376;-84
2022/11/26 04:55:50;;;;;;;;;;;;;;;12.26;73.27;102206.38;5131538;27;19945;-83
2022/11/26 04:58:16;;;;;;;;;;;;;;;12.21;73.44;102214.81;5114267;27;19919;-83
2022/11/26 05:00:42;;;;;;;;;;;;;;;12.22;73.59;102211.38;5091620;28;20011;-83
2022/11/26 05:03:07;;;;;;;;;;;;;;;12.22;73.58;102214.00;5118496;27;20006;-82
2022/11/26 05:05:33;;;;;;;;;;;;;;;12.21;73.20;102211.25;5113506;27;19922;-83
2022/11/26 05:07:58;;;;;;;;;;;;;;;12.25;73.31;102209.78;5113592;27;19921;-83
2022/11/26 05:10:24;;;;;;;;;;;;;;;12.21;73.57;102213.88;5110623;28;20732;-82
2022/11/26 05:12:49;;;;;;;;;;;;;;;12.23;73.22;102222.75;5117872;27;19965;-83
2022/11/26 05:15:14;;;;;;;;;;;;;;;12.21;73.47;102209.56;5104947;27;19927;-83
2022/11/26 05:17:40;;;;;;;;;;;;;;;12.22;73.46;102218.34;5123793;27;19920;-83
2022/11/26 05:20:08;;;;;;;;;;;;;;;12.22;73.08;102219.22;5128621;27;21334;-84
2022/11/26 05:22:33;;;;;;;;;;;;;;;12.19;73.25;102212.84;5114494;27;19973;-84
2022/11/26 05:24:58;;;;;;;;;;;;;;;12.22;73.41;102214.00;5128326;27;19919;-84
2022/11/26 05:27:24;;;;;;;;;;;;;;;12.20;73.44;102217.31;5106532;27;19923;-84
2022/11/26 05:29:49;;;;;;;;;;;;;;;12.17;73.15;102220.63;5118074;27;20301;-84
2022/11/26 05:32:15;;;;;;;;;;;;;;;12.20;73.30;102217.31;5108168;27;20356;-83
2022/11/26 05:34:40;;;;;;;;;;;;;;;12.19;73.53;102224.28;5111576;27;20037;-84
2022/11/26 05:37:06;;;;;;;;;;;;;;;12.18;73.55;102232.00;5118707;27;19915;-83
2022/11/26 05:39:31;;;;;;;;;;;;;;;12.18;73.34;102243.38;5143480;27;19919;-83
2022/11/26 05:41:56;;;;;;;;;;;;;;;12.17;73.44;102238.03;5131100;27;20316;-83
2022/11/26 05:44:22;;;;;;;;;;;;;;;12.16;73.42;102244.09;5134728;27;19915;-83
2022/11/26 05:46:47;;;;;;;;;;;;;;;12.17;73.11;102249.44;5097393;28;19935;-83
2022/11/26 05:49:13;;;;;;;;;;;;;;;12.17;73.23;102246.81;5131200;27;19915;-83
2022/11/26 05:51:38;;;;;;;;;;;;;;;12.14;73.35;102251.81;5110346;27;20418;-83
2022/11/26 05:54:03;;;;;;;;;;;;;;;12.14;73.51;102254.44;5128465;28;19922;-83
2022/11/26 05:56:29;;;;;;;;;;;;;;;12.15;73.57;102258.91;5091883;28;19919;-83
2022/11/26 05:58:54;;;;;;;;;;;;;;;12.15;73.66;102266.75;5114363;28;19963;-84
2022/11/26 06:01:20;;;;;;;;;;;;;;;12.14;73.48;102262.28;5114613;27;20362;-84
2022/11/26 06:03:45;;;;;;;;;;;;;;;12.13;73.64;102268.34;5138904;27;20383;-84
2022/11/26 06:06:10;;;;;;;;;;;;;;;12.13;73.79;102263.13;5135399;27;20380;-83
2022/11/26 06:08:36;;;;;;;;;;;;;;;12.13;73.68;102267.44;5129232;27;20517;-82
2022/11/26 06:11:01;;;;;;;;;;;;;;;12.15;73.42;102271.06;5115784;27;19920;-82
2022/11/26 06:13:27;;;;;;;;;;;;;;;12.14;73.73;102279.72;5132320;27;19916;-83
2022/11/26 06:15:52;;;;;;;;;;;;;;;12.10;73.58;102283.81;5128255;27;20538;-83
2022/11/26 06:18:18;;;;;;;;;;;;;;;12.11;73.87;102290.91;5127644;27;20400;-84
2022/11/26 06:20:43;;;;;;;;;;;;;;;12.12;73.69;102279.59;5110946;27;19915;-84
2022/11/26 06:23:09;;;;;;;;;;;;;;;12.11;73.53;102280.44;5115487;27;19920;-84
2022/11/26 06:25:34;;;;;;;;;;;;;;;12.09;73.47;102286.34;5142444;27;19970;-85
2022/11/26 06:28:00;;;;;;;;;;;;;;;12.08;73.75;102285.41;5115840;27;19916;-85
2022/11/26 06:30:25;;;;;;;;;;;;;;;12.11;73.49;102290.00;5126174;27;20448;-84
2022/11/26 06:32:50;;;;;;;;;;;;;;;12.14;73.58;102295.44;5130645;27;20605;-83
2022/11/26 06:35:16;;;;;;;;;;;;;;;12.10;73.57;102294.31;5118426;27;20583;-84
2022/11/26 06:37:41;;;;;;;;;;;;;;;12.11;73.59;102295.25;5114224;27;20423;-83
2022/11/26 06:40:07;;;;;;;;;;;;;;;12.09;73.27;102302.06;5139872;27;19964;-84
2022/11/26 06:42:33;;;;;;;;;;;;;;;12.11;73.22;102297.84;5139085;27;19922;-84
2022/11/26 06:45:01;;;;;;;;;;;;;;;12.11;73.63;102296.13;5128519;27;19919;-85
2022/11/26 06:47:27;;;;;;;;;;;;;;;12.06;73.54;102305.34;5136877;27;19911;-84
2022/11/26 06:49:52;;;;;;;;;;;;;;;12.08;73.58;102309.00;5131594;27;19922;-85
2022/11/26 06:52:17;;;;;;;;;;;;;;;12.08;73.27;102306.38;5096475;27;19922;-83
2022/11/26 06:54:43;;;;;;;;;;;;;;;12.09;73.24;102307.31;5137439;27;20068;-83
2022/11/26 06:57:08;;;;;;;;;;;;;;;12.10;73.39;102311.72;5135525;27;19933;-83
2022/11/26 06:59:34;;;;;;;;;;;;;;;12.08;73.72;102314.22;5134306;27;20010;-83
2022/11/26 07:02:00;;;;;;;;;;;;;;;12.07;73.53;102315.03;5103632;27;20375;-83
2022/11/26 07:04:25;;;;;;;;;;;;;;;12.08;73.57;102315.94;5124254;27;20010;-83
2022/11/26 07:06:50;;;;;;;;;;;;;;;12.14;73.54;102319.00;5118833;27;19919;-84
2022/11/26 07:09:16;;;;;;;;;;;;;;;12.10;73.68;102323.09;5140234;27;20439;-84
2022/11/26 07:11:42;;;;;;;;;;;;;;;12.06;73.39;102321.06;5120911;27;20395;-84
2022/11/26 07:14:07;;;;;;;;;;;;;;;12.07;73.83;102325.50;5106900;27;20354;-84
2022/11/26 07:16:36;;;;;;;;;;;;;;;12.09;73.66;102333.50;5106187;27;20392;-82
2022/11/26 07:19:02;;;;;;;;;;;;;;;12.06;73.50;102338.50;5100022;27;20018;-81
2022/11/26 07:21:27;;;;;;;;;;;;;;;12.06;73.74;102331.53;5144793;27;19976;-88
2022/11/26 07:23:53;;;;;;;;;;;;;;;12.07;73.73;102336.00;5128001;27;19922;-90
2022/11/26 07:26:20;;;;;;;;;;;;;;;12.06;73.54;102335.88;5105156;27;20010;-90
2022/11/26 07:28:46;;;;;;;;;;;;;;;12.06;73.80;102343.72;5114869;27;19930;-91
2022/11/26 07:31:12;;;;;;;;;;;;;;;12.05;73.55;102340.22;5094573;27;19964;-88
2022/11/26 07:33:37;;;;;;;;;;;;;;;12.08;73.50;102336.91;5096734;27;19975;-89
2022/11/26 07:36:04;;;;;;;;;;;;;;;12.06;73.87;102331.53;5093554;27;19911;-87
2022/11/26 07:38:30;;;;;;;;;;;;;;;12.05;73.69;102339.31;5093616;27;19919;-88
2022/11/26 07:41:01;;;;;;;;;;;;;;;12.08;73.82;102339.50;5119406;27;19911;-88
2022/11/26 07:43:28;;;;;;;;;;;;;;;12.06;73.60;102339.38;5100475;27;20300;-88
2022/11/26 07:45:54;;;;;;;;;;;;;;;12.05;73.81;102349.78;5101491;27;19911;-88
2022/11/26 07:48:20;;;;;;;;;;;;;;;12.03;73.59;102354.91;5117379;27;19915;-88
2022/11/26 07:50:45;;;;;;;;;;;;;;;12.04;73.74;102347.94;5134996;27;19954;-87
2022/11/26 07:53:13;;;;;;;;;;;;;;;12.06;73.70;102348.97;5133528;27;19977;-88
2022/11/26 07:55:39;;;;;;;;;;;;;;;11.99;73.60;102350.22;5116071;27;19911;-87
2022/11/26 07:58:04;;;;;;;;;;;;;;;12.03;73.49;102349.66;5125267;27;19915;-86
2022/11/26 08:00:30;;;;;;;;;;;;;;;12.04;73.63;102354.06;5095778;28;20309;-88
2022/11/26 08:02:55;;;;;;;;;;;;;;;12.02;73.59;102356.59;5090687;27;19998;-84
2022/11/26 08:05:21;;;;;;;;;;;;;;;12.06;73.81;102351.56;5094586;28;20299;-84
2022/11/26 08:07:46;;;;;;;;;;;;;;;12.01;73.71;102348.63;5124041;27;19911;-87
2022/11/26 08:10:12;;;;;;;;;;;;;;;12.04;73.61;102358.41;5123855;27;20372;-86
2022/11/26 08:12:37;;;;;;;;;;;;;;;12.02;73.47;102358.28;5145382;27;20300;-88
2022/11/26 08:15:21;;;;;;;;;;;;;;;12.03;73.56;102357.50;5125206;27;19946;-90
2022/11/26 08:17:46;;;;;;;;;;;;;;;12.01;73.50;102356.47;5096048;27;19920;-88
2022/11/26 08:20:12;;;;;;;;;;;;;;;12.02;73.50;102350.44;5101218;27;20380;-88
2022/11/26 08:22:37;;;;;;;;;;;;;;;12.01;73.23;102352.16;5098396;27;19912;-88
2022/11/26 08:25:07;;;;;;;;;;;;;;;11.98;73.84;102354.56;5089343;28;20389;-88
2022/11/26 08:27:37;;;;;;;;;;;;;;;11.95;73.46;102359.56;5113787;27;19912;-93
2022/11/26 08:33:05;;;;;;;;;;;;;;;11.93;73.62;102366.38;5112267;27;20445;-85
2022/11/26 08:35:30;;;;;;;;;;;;;;;11.96;73.51;102369.25;5110050;27;19916;-85
2022/11/26 08:37:56;;;;;;;;;;;;;;;12.00;73.34;102378.22;5096788;27;19963;-85
2022/11/26 08:40:21;;;;;;;;;;;;;;;11.95;73.51;102372.66;5098390;27;19912;-86
2022/11/26 08:42:47;;;;;;;;;;;;;;;11.95;73.65;102366.50;5081302;28;19923;-85
2022/11/26 08:45:12;;;;;;;;;;;;;;;11.95;73.23;102367.41;5114214;27;19937;-84
2022/11/26 08:47:38;;;;;;;;;;;;;;;11.95;73.18;102359.56;5094652;27;19915;-85
2022/11/26 08:50:03;;;;;;;;;;;;;;;11.97;73.12;102367.53;5111851;28;20622;-86
2022/11/26 08:52:29;;;;;;;;;;;;;;;12.01;73.01;102366.97;5112156;28;20385;-86
2022/11/26 08:54:54;;;;;;;;;;;;;;;11.97;72.95;102370.16;5096734;28;19923;-86
2022/11/26 08:57:20;;;;;;;;;;;;;;;11.94;73.08;102360.38;5112506;28;20349;-87
2022/11/26 08:59:45;;;;;;;;;;;;;;;11.96;73.33;102364.00;5093596;28;19955;-86
2022/11/26 09:02:10;;;;;;;;;;;;;;;11.98;73.35;102356.25;5078716;28;19912;-86
2022/11/26 09:04:36;;;;;;;;;;;;;;;11.97;73.48;102357.97;5110674;28;20342;-87
2022/11/26 09:07:01;;;;;;;;;;;;;;;11.94;73.42;102349.91;5110922;28;20308;-86
2022/11/26 09:09:28;;;;;;;;;;;;;;;11.93;73.21;102360.25;5110195;28;19911;-86
2022/11/26 09:11:57;;;;;;;;;;;;;;;11.99;73.25;102358.09;5078880;28;20014;-84
2022/11/26 09:14:26;;;;;;;;;;;;;;;11.96;72.88;102356.16;5110133;28;19918;-86
2022/11/26 09:16:52;;;;;;;;;;;;;;;11.95;72.87;102348.19;5097644;27;19927;-86
2022/11/26 09:19:17;;;;;;;;;;;;;;;12.00;72.93;102358.19;5112475;27;19916;-85
2022/11/26 09:21:43;;;;;;;;;;;;;;;12.06;72.45;102352.47;5112062;27;19915;-84
2022/11/26 09:24:10;;;;;;;;;;;;;;;12.03;72.77;102354.91;5112901;27;19912;-85
2022/11/26 09:26:35;;;;;;;;;;;;;;;12.01;72.57;102343.41;5086692;28;19920;-86
2022/11/26 09:29:01;;;;;;;;;;;;;;;11.96;72.91;102344.78;5094394;27;20329;-85
2022/11/26 09:31:26;;;;;;;;;;;;;;;11.99;73.24;102345.88;5115117;27;19915;-86
2022/11/26 09:33:54;;;;;;;;;;;;;;;11.99;72.93;102343.28;5103510;28;19912;-86
2022/11/26 09:36:20;;;;;;;;;;;;;;;12.00;73.41;102346.78;5104722;28;19915;-86
2022/11/26 09:38:45;;;;;;;;;;;;;;;11.98;72.94;102344.09;5104383;27;19923;-86
2022/11/26 09:41:29;;;;;;;;;;;;;;;12.02;73.06;102339.97;5112899;27;19923;-86
2022/11/26 09:44:13;;;;;;;;;;;;;;;12.00;72.96;102337.25;5102858;28;19915;-86
2022/11/26 09:46:44;;;;;;;;;;;;;;;12.06;72.77;102333.25;5106520;28;19915;-86
2022/11/26 09:49:11;;;;;;;;;;;;;;;12.01;72.84;102340.78;5105283;28;19919;-86
2022/11/26 09:51:36;;;;;;;;;;;;;;;12.05;72.76;102342.81;5103785;28;20517;-86
2022/11/26 09:54:03;;;;;;;;;;;;;;;12.06;72.44;102339.38;5101418;28;19937;-86
2022/11/26 09:56:28;;;;;;;;;;;;;;;12.02;72.88;102343.50;5113369;28;19941;-85
2022/11/26 09:59:00;;;;;;;;;;;;;;;12.08;72.68;102336.91;5101357;28;19916;-86
2022/11/26 10:01:26;;;;;;;;;;;;;;;12.09;72.33;102343.97;5109910;28;19915;-85
2022/11/26 10:03:51;;;;;;;;;;;;;;;12.06;72.83;102343.72;5098899;28;19919;-86
2022/11/26 10:06:29;;;;;;;;;;;;;;;12.06;73.04;102343.72;5102602;28;20403;-86
2022/11/26 10:08:54;;;;;;;;;;;;;;;12.05;72.91;102344.53;5105635;28;20407;-86
2022/11/26 10:11:38;;;;;;;;;;;;;;;12.04;72.74;102343.59;5110642;28;19919;-86
2022/11/26 10:14:12;;;;;;;;;;;;;;;12.05;72.98;102334.06;5110101;28;19916;-86
2022/11/26 10:16:38;;;;;;;;;;;;;;;12.02;73.25;102334.72;5090609;28;19975;-87
2022/11/26 10:19:11;;;;;;;;;;;;;;;12.05;73.40;102334.06;5114444;28;20408;-86
2022/11/26 10:21:45;;;;;;;;;;;;;;;12.02;73.06;102333.03;5115764;28;19922;-85
2022/11/26 10:24:29;;;;;;;;;;;;;;;12.06;72.98;102338.50;5110914;28;19919;-85
2022/11/26 10:26:55;;;;;;;;;;;;;;;12.04;73.17;102333.13;5113150;28;19915;-86
2022/11/26 10:29:22;;;;;;;;;;;;;;;12.04;73.60;102338.38;5108820;28;19922;-86
2022/11/26 10:31:47;;;;;;;;;;;;;;;12.06;73.61;102333.25;5106960;28;19963;-86
2022/11/26 10:34:15;;;;;;;;;;;;;;;12.08;73.71;102340.41;5090892;28;20006;-85
2022/11/26 10:36:41;;;;;;;;;;;;;;;12.08;73.52;102331.66;5110101;28;19916;-86
2022/11/26 10:39:09;;;;;;;;;;;;;;;12.08;73.85;102342.13;5113495;28;19926;-85
2022/11/26 10:41:35;;;;;;;;;;;;;;;12.08;73.72;102329.94;5107796;28;19916;-86
2022/11/26 10:44:19;;;;;;;;;;;;;;;12.13;73.93;102338.16;5087271;28;19922;-86
2022/11/26 10:46:45;;;;;;;;;;;;;;;12.15;73.97;102332.22;5118829;28;19916;-86
2022/11/26 10:49:29;;;;;;;;;;;;;;;12.13;74.13;102339.06;5111269;28;19916;-86
2022/11/26 10:51:58;;;;;;;;;;;;;;;12.15;73.89;102333.91;5110496;28;19916;-86
2022/11/26 10:54:29;;;;;;;;;;;;;;;12.17;73.98;102330.63;5099920;28;20047;-83
2022/11/26 10:56:54;;;;;;;;;;;;;;;12.19;74.12;102326.41;5115495;27;20316;-86
2022/11/26 10:59:19;;;;;;;;;;;;;;;12.22;74.17;102321.38;5122845;27;19920;-86
2022/11/26 11:01:45;;;;;;;;;;;;;;;12.25;74.24;102327.63;5122207;27;19912;-86
2022/11/26 11:04:23;;;;;;;;;;;;;;;12.24;74.30;102324.13;5116270;27;19918;-85
2022/11/26 11:06:49;;;;;;;;;;;;;;;12.24;74.32;102328.47;5123207;27;19912;-84
2022/11/26 11:09:37;;;;;;;;;;;;;;;12.26;74.26;102329.47;5124502;27;19911;-85
2022/11/26 11:12:23;;;;;;;;;;;;;;;12.28;74.25;102327.88;5090409;28;19923;-86
2022/11/26 11:14:49;;;;;;;;;;;;;;;12.30;74.15;102324.56;5114179;27;19927;-85
2022/11/26 11:17:21;;;;;;;;;;;;;;;12.30;74.21;102329.81;5104437;27;20312;-84
2022/11/26 11:19:47;;;;;;;;;;;;;;;12.31;74.08;102322.84;5114363;27;19923;-84
2022/11/26 11:22:21;;;;;;;;;;;;;;;12.33;74.42;102316.00;5094785;27;19916;-86
2022/11/26 11:24:47;;;;;;;;;;;;;;;12.35;74.24;102317.03;5113334;27;20510;-87
2022/11/26 11:27:39;;;;;;;;;;;;;;;12.36;74.13;102305.72;5120617;27;19916;-87
2022/11/26 11:30:04;;;;;;;;;;;;;;;12.34;74.27;102302.09;5114613;27;20376;-88
2022/11/26 11:32:32;;;;;;;;;;;;;;;12.35;74.23;102304.84;5105518;28;19927;-88
2022/11/26 11:35:10;;;;;;;;;;;;;;;12.38;74.04;102305.06;5116197;27;20456;-88
2022/11/26 11:37:35;;;;;;;;;;;;;;;12.41;74.06;102299.13;5096043;28;19923;-88
2022/11/26 11:40:02;;;;;;;;;;;;;;;12.43;73.90;102306.28;5107627;27;19916;-86
2022/11/26 11:42:28;;;;;;;;;;;;;;;12.53;73.83;102305.25;5110293;27;19916;-85
2022/11/26 11:44:53;;;;;;;;;;;;;;;12.61;73.46;102311.94;5113350;27;19912;-87
2022/11/26 11:47:25;;;;;;;;;;;;;;;12.56;73.92;102313.31;5112388;27;19945;-87
2022/11/26 11:49:57;;;;;;;;;;;;;;;12.70;73.22;102318.59;5110430;28;20385;-88
2022/11/26 11:52:38;;;;;;;;;;;;;;;12.66;73.65;102311.31;5101594;28;19923;-87
2022/11/26 11:55:36;;;;;;;;;;;;;;;12.62;73.54;102316.38;5110726;28;20419;-88
2022/11/26 11:58:10;;;;;;;;;;;;;;;12.70;73.89;102315.97;5073127;28;19943;-87
2022/11/26 12:00:36;;;;;;;;;;;;;;;12.71;73.67;102313.47;5098439;28;20400;-88
2022/11/26 12:03:11;;;;;;;;;;;;;;;12.76;73.23;102316.41;5117665;28;19923;-87
2022/11/26 12:05:56;;;;;;;;;;;;;;;12.77;73.19;102313.00;5120034;28;19916;-87
2022/11/26 12:08:25;;;;;;;;;;;;;;;12.72;73.57;102314.38;5116575;28;20333;-88
2022/11/26 12:11:10;;;;;;;;;;;;;;;12.79;73.51;102308.78;5094367;28;19919;-86
2022/11/26 12:13:42;;;;;;;;;;;;;;;12.82;73.40;102314.22;5110410;28;19969;-88
2022/11/26 12:16:08;;;;;;;;;;;;;;;12.80;73.59;102310.59;5098842;28;19916;-88
2022/11/26 12:18:41;;;;;;;;;;;;;;;12.82;73.39;102307.25;5066325;28;19999;-89
2022/11/26 12:21:09;;;;;;;;;;;;;;;12.86;73.51;102310.13;5082732;28;19912;-86
2022/11/26 12:23:43;;;;;;;;;;;;;;;12.91;73.48;102313.94;5073893;28;19967;-88
2022/11/26 12:26:17;;;;;;;;;;;;;;;12.91;73.58;102316.56;5070732;28;19948;-86
2022/11/26 12:28:48;;;;;;;;;;;;;;;12.92;73.51;102321.94;5072814;28;20382;-88
2022/11/26 12:31:33;;;;;;;;;;;;;;;12.96;73.43;102325.69;5081033;28;19919;-86
2022/11/26 12:34:00;;;;;;;;;;;;;;;12.96;73.30;102326.59;5092726;28;19966;-87
2022/11/26 12:36:28;;;;;;;;;;;;;;;12.93;73.73;102321.16;5072432;28;19924;-87
2022/11/26 12:38:56;;;;;;;;;;;;;;;12.94;73.43;102325.56;5055725;28;19917;-87
2022/11/26 12:41:26;;;;;;;;;;;;;;;12.96;73.73;102323.97;5059470;28;19919;-86